Berlin — 9HA2295 — position and weather

sailwx.info

Track history (hours):
 
Tides and Currents Weather Stations Pressure Air Temp Water Temp Dewpoint Dewpoint Depression Visibility Wind Speed Wind Dir Waves Ship Positions

Berlin

Last reported at 2015-May-21 14:33 UTC. Time now 2015-May-22 08:28 UTC.
Position N 43°29' E 007°08'.

Length 140 m; draft 5 m.

Type: Ship. MMSI: 248277000.

Date/timePositionNaut miles runAvg speedWind from/ knotsBaromVisibWave heightAir tempDewpointWater temp
2015-May-21 14:33N 43°29' E 007°08'1313.4
2015-May-21 13:33N 43°41' E 007°17'1 0.9
2015-May-21 12:29N 43°42' E 007°17'0 0.0
2015-May-21 11:29N 43°42' E 007°17'0 0.0
2015-May-21 10:17N 43°42' E 007°17'0 0.0
2015-May-21 08:29N 43°42' E 007°17'0 0.0
2015-May-21 07:11N 43°42' E 007°17'0 0.0
2015-May-21 06:29N 43°42' E 007°17'0 0.1
2015-May-21 05:34N 43°41' E 007°17'1211.8
2015-May-21 04:33N 43°31' E 007°26'  
2015-May-17 19:19N 42°42' E 009°27'0 0.0
2015-May-17 05:12N 42°42' E 009°27'17 9.4
2015-May-17 03:26N 42°58' E 009°31'8 9.6
2015-May-17 02:33N 43°06' E 009°26'9 9.2
2015-May-17 01:34N 43°01' E 009°14'1210.4
2015-May-17 00:26N 42°52' E 009°04'23 2.9
2015-May-16 16:29N 42°34' E 008°46'82 3.9
2015-May-15 19:33N 43°33' E 007°27'9 9.1
2015-May-15 18:33N 43°39' E 007°18'2 2.3
2015-May-15 17:30N 43°42' E 007°17'0 0.0
2015-May-15 16:30N 43°42' E 007°17'0 0.0
2015-May-15 15:30N 43°42' E 007°17'0 0.0
2015-May-15 14:30N 43°42' E 007°17'0 0.0
2015-May-15 13:24N 43°42' E 007°17'0 0.0
2015-May-15 12:30N 43°42' E 007°17'0 0.0
2015-May-15 11:30N 43°42' E 007°17'0 0.0
2015-May-15 10:30N 43°42' E 007°17'0 0.0
2015-May-15 09:30N 43°42' E 007°17'1 0.5
2015-May-15 07:24N 43°41' E 007°18'4314.6
2015-May-15 04:28N 43°24' E 008°12'1414.7
2015-May-15 03:33N 43°19' E 008°30'1514.9
2015-May-15 02:33N 43°13' E 008°48'1515.0
2015-May-15 01:33N 43°08' E 009°08'1514.6
2015-May-15 00:33N 43°02' E 009°26'4414.1
2015-May-14 21:28N 42°19' E 009°36'44 3.6
2015-May-14 09:17N 41°37' E 009°23'6 7.1
2015-May-14 08:22N 41°31' E 009°26'1012.9
2015-May-14 07:34N 41°31' E 009°40'1312.5
2015-May-14 06:34N 41°33' E 009°57'1413.9
2015-May-14 05:33N 41°39' E 010°14'1514.1
2015-May-14 04:29N 41°44' E 010°33'1514.1
2015-May-14 03:24N 41°50' E 010°51'44 3.3
2015-May-13 14:07N 42°06' E 011°47'0 0.0
2015-May-13 13:25N 42°06' E 011°47'0 0.0
2015-May-13 10:28N 42°06' E 011°47'82 7.2
2015-May-12 23:04N 41°07' E 013°04'713.8
2015-May-12 22:33N 41°03' E 013°12'1413.8
2015-May-12 21:34N 40°54' E 013°26'1413.5
2015-May-12 20:33N 40°46' E 013°40'1313.2
2015-May-12 19:34N 40°39' E 013°54'1313.2
2015-May-12 18:34N 40°44' E 014°10'7 0.8
2015-May-12 09:14N 40°50' E 014°16'3 4.8
2015-May-12 08:33N 40°47' E 014°16'1212.4
2015-May-12 07:33N 40°35' E 014°11'1312.1
2015-May-12 06:31N 40°23' E 014°15'14012.8
2015-May-11 19:33N 38°20' E 015°40'  
Track history (hours):
 
Tides and Currents Weather Stations Pressure Air Temp Water Temp Dewpoint Dewpoint Depression Visibility Wind Speed Wind Dir Waves Ship Positions

Berlin

Last reported at 2015-May-21 14:33 UTC. Time now 2015-May-22 08:28 UTC.
Position N 43°29' E 007°08'.

Length 140 m; draft 5 m.

Type: Ship. MMSI: 248277000.

Date/timePositionNaut miles runAvg speedWind from/ knotsBaromVisibWave heightAir tempDewpointWater temp
2015-May-21 14:33N 43°29' E 007°08'1313.4
2015-May-21 13:33N 43°41' E 007°17'1 0.9
2015-May-21 12:29N 43°42' E 007°17'0 0.0
2015-May-21 11:29N 43°42' E 007°17'0 0.0
2015-May-21 10:17N 43°42' E 007°17'0 0.0
2015-May-21 08:29N 43°42' E 007°17'0 0.0
2015-May-21 07:11N 43°42' E 007°17'0 0.0
2015-May-21 06:29N 43°42' E 007°17'0 0.1
2015-May-21 05:34N 43°41' E 007°17'1211.8
2015-May-21 04:33N 43°31' E 007°26'  
2015-May-17 19:19N 42°42' E 009°27'0 0.0
2015-May-17 05:12N 42°42' E 009°27'17 9.4
2015-May-17 03:26N 42°58' E 009°31'8 9.6
2015-May-17 02:33N 43°06' E 009°26'9 9.2
2015-May-17 01:34N 43°01' E 009°14'1210.4
2015-May-17 00:26N 42°52' E 009°04'23 2.9
2015-May-16 16:29N 42°34' E 008°46'82 3.9
2015-May-15 19:33N 43°33' E 007°27'9 9.1
2015-May-15 18:33N 43°39' E 007°18'2 2.3
2015-May-15 17:30N 43°42' E 007°17'0 0.0
2015-May-15 16:30N 43°42' E 007°17'0 0.0
2015-May-15 15:30N 43°42' E 007°17'0 0.0
2015-May-15 14:30N 43°42' E 007°17'0 0.0
2015-May-15 13:24N 43°42' E 007°17'0 0.0
2015-May-15 12:30N 43°42' E 007°17'0 0.0
2015-May-15 11:30N 43°42' E 007°17'0 0.0
2015-May-15 10:30N 43°42' E 007°17'0 0.0
2015-May-15 09:30N 43°42' E 007°17'1 0.5
2015-May-15 07:24N 43°41' E 007°18'4314.6
2015-May-15 04:28N 43°24' E 008°12'1414.7
2015-May-15 03:33N 43°19' E 008°30'1514.9
2015-May-15 02:33N 43°13' E 008°48'1515.0
2015-May-15 01:33N 43°08' E 009°08'1514.6
2015-May-15 00:33N 43°02' E 009°26'4414.1
2015-May-14 21:28N 42°19' E 009°36'44 3.6
2015-May-14 09:17N 41°37' E 009°23'6 7.1
2015-May-14 08:22N 41°31' E 009°26'1012.9
2015-May-14 07:34N 41°31' E 009°40'1312.5
2015-May-14 06:34N 41°33' E 009°57'1413.9
2015-May-14 05:33N 41°39' E 010°14'1514.1
2015-May-14 04:29N 41°44' E 010°33'1514.1
2015-May-14 03:24N 41°50' E 010°51'44 3.3
2015-May-13 14:07N 42°06' E 011°47'0 0.0
2015-May-13 13:25N 42°06' E 011°47'0 0.0
2015-May-13 10:28N 42°06' E 011°47'82 7.2
2015-May-12 23:04N 41°07' E 013°04'713.8
2015-May-12 22:33N 41°03' E 013°12'1413.8
2015-May-12 21:34N 40°54' E 013°26'1413.5
2015-May-12 20:33N 40°46' E 013°40'1313.2
2015-May-12 19:34N 40°39' E 013°54'1313.2
2015-May-12 18:34N 40°44' E 014°10'7 0.8
2015-May-12 09:14N 40°50' E 014°16'3 4.8
2015-May-12 08:33N 40°47' E 014°16'1212.4
2015-May-12 07:33N 40°35' E 014°11'1312.1
2015-May-12 06:31N 40°23' E 014°15'14012.8
2015-May-11 19:33N 38°20' E 015°40'  

Dump ship's entire track history